»·PEaware :: N7166G KGUP-KROW

N7166G :: KGUP-KROW

FLIGHT INFORMATION

Flight Status: Arrived
Operator: Privately registered:
United States
More flights under this callsign
Pilot: John K. J. (32792)
Aircraft: DASSAULT AVIATION FALCON 20/100
(FA20)
More flights by this aircraft type
Origin: KGUP Gallup Mun
United States
Destination: KROW Roswell Industrial
United States
More flights between these airports :: More routes between these airports
Route: GUP ZUN ABQ CNX CME HOPET
File this flight plan on PilotEdge
Remarks:
Altitude:
(Current/Filed)
31,000ft
Speed:
(Current/Filed)
350kts
Departed: 18-Nov-22 09:34 PM
Arrived: 18-Nov-22 10:35 PM
Distance/Time
Traveled:
249nm/1:01
Distance/Time
To Go:
Arrived

Flight Plot

Page will automatically refresh every two minutes.

Flight plan parsing failed; only flown route is shown


Map Options




Map Legend


Flown Route
Filed Route
Departure Airport
Arrival Airport
Navaid (VOR, NDB)
Fix

Horizontal Profiles

Position Reports

Time Latitude Longitude Heading Altitude Ground
Speed
18-Nov-22 21:24 35.514601 -108.779946 165 6477ft 0kts
18-Nov-22 21:25 35.514600 -108.779946 165 6477ft 0kts
18-Nov-22 21:25 35.514598 -108.779946 165 6477ft 0kts
18-Nov-22 21:26 35.514596 -108.779945 165 6477ft 0kts
18-Nov-22 21:28 35.514449 -108.779890 153 6477ft 5kts
18-Nov-22 21:29 35.514397 -108.779655 78 6477ft 0kts
18-Nov-22 21:30 35.514564 -108.778805 73 6477ft 8kts
18-Nov-22 21:30 35.514372 -108.777858 166 6477ft 0kts
18-Nov-22 21:31 35.514370 -108.777857 166 6477ft 0kts
18-Nov-22 21:32 35.513891 -108.777767 203 6477ft 4kts
18-Nov-22 21:34 35.510671 -108.791034 253 6477ft 145kts
18-Nov-22 21:35 35.489855 -108.845093 233 8357ft 211kts
18-Nov-22 21:35 35.449864 -108.885053 207 9908ft 237kts
18-Nov-22 21:36 35.388875 -108.920820 204 12644ft 246kts
18-Nov-22 21:37 35.321489 -108.958365 204 16187ft 289kts
18-Nov-22 21:38 35.245220 -109.000589 204 19694ft 313kts
18-Nov-22 21:39 35.163835 -109.045531 204 23195ft 329kts
18-Nov-22 21:40 35.079906 -109.091772 204 26695ft 328kts
18-Nov-22 21:41 34.997577 -109.137045 204 29410ft 332kts
18-Nov-22 21:42 34.931815 -109.103544 79 30990ft 352kts
18-Nov-22 21:43 34.978747 -108.993640 78 31024ft 391kts
18-Nov-22 21:44 34.986025 -108.854283 88 31002ft 424kts
18-Nov-22 21:45 34.988029 -108.708205 88 31000ft 443kts
18-Nov-22 21:46 34.991770 -108.556047 87 30999ft 453kts
18-Nov-22 21:47 34.996613 -108.401743 87 30999ft 456kts
18-Nov-22 21:48 35.000236 -108.293903 87 30999ft 457kts
18-Nov-22 21:49 35.005486 -108.139539 87 30999ft 457kts
18-Nov-22 21:50 35.010130 -108.001111 87 30999ft 457kts
18-Nov-22 21:51 35.015050 -107.850350 87 30999ft 457kts
18-Nov-22 21:52 35.017425 -107.775647 87 30999ft 457kts
18-Nov-22 21:53 35.022207 -107.620911 87 30999ft 458kts
18-Nov-22 21:54 35.026904 -107.462515 87 30998ft 474kts
18-Nov-22 21:55 35.031503 -107.300612 87 30999ft 479kts
18-Nov-22 21:56 35.035888 -107.138295 87 30999ft 480kts
18-Nov-22 21:57 35.040045 -106.975726 88 30999ft 480kts
18-Nov-22 21:58 35.037711 -106.813613 105 31002ft 481kts
18-Nov-22 21:59 34.972529 -106.671983 125 30999ft 481kts
18-Nov-22 22:00 34.891326 -106.542874 127 30999ft 481kts
18-Nov-22 22:01 34.810361 -106.413740 126 30999ft 481kts
18-Nov-22 22:02 34.730805 -106.283390 126 30999ft 481kts
18-Nov-22 22:03 34.651806 -106.152103 125 30999ft 481kts
18-Nov-22 22:04 34.573315 -106.021126 125 30999ft 481kts
18-Nov-22 22:05 34.494931 -105.890460 125 29598ft 474kts
18-Nov-22 22:06 34.418342 -105.763139 125 27225ft 465kts
18-Nov-22 22:07 34.335560 -105.644506 136 25270ft 456kts
18-Nov-22 22:08 34.243338 -105.546062 139 23600ft 428kts
18-Nov-22 22:09 34.155351 -105.456266 139 21183ft 396kts
18-Nov-22 22:10 34.074686 -105.373791 139 18678ft 368kts
18-Nov-22 22:11 33.987021 -105.317331 157 16168ft 350kts
18-Nov-22 22:12 33.898969 -105.272690 156 13674ft 338kts
18-Nov-22 22:13 33.816310 -105.228409 155 12011ft 310kts
18-Nov-22 22:14 33.741816 -105.187210 155 10999ft 285kts
18-Nov-22 22:15 33.671092 -105.147628 154 10067ft 276kts
18-Nov-22 22:16 33.600577 -105.108044 154 9555ft 282kts
18-Nov-22 22:17 33.530282 -105.068598 154 9057ft 274kts
18-Nov-22 22:18 33.461981 -105.030327 154 8999ft 270kts
18-Nov-22 22:19 33.393548 -104.992048 154 7969ft 258kts
18-Nov-22 22:20 33.340477 -104.962394 154 7291ft 182kts
18-Nov-22 22:21 33.291246 -104.939494 153 7300ft 194kts
18-Nov-22 22:22 33.246974 -104.912426 151 7294ft 170kts
18-Nov-22 22:23 33.205242 -104.889003 158 7297ft 160kts
18-Nov-22 22:24 33.166549 -104.864798 145 7297ft 156kts
18-Nov-22 22:25 33.127784 -104.842129 158 7209ft 159kts
18-Nov-22 22:26 33.121945 -104.794481 65 6301ft 158kts
18-Nov-22 22:27 33.138446 -104.747133 77 6301ft 153kts
18-Nov-22 22:28 33.151625 -104.699113 61 6296ft 153kts
18-Nov-22 22:29 33.179824 -104.660899 39 5360ft 153kts
18-Nov-22 22:30 33.211518 -104.626681 45 4621ft 151kts
18-Nov-22 22:31 33.238423 -104.593839 44 4595ft 132kts
18-Nov-22 22:32 33.263893 -104.563471 45 4471ft 125kts
18-Nov-22 22:33 33.290522 -104.531538 45 3687ft 122kts
18-Nov-22 22:34 33.298104 -104.523903 317 3676ft 12kts
18-Nov-22 22:35 33.299108 -104.526509 318 3676ft 0kts
18-Nov-22 22:36 33.299110 -104.526512 318 3676ft 0kts
18-Nov-22 22:37 33.299112 -104.526514 318 3676ft 0kts
18-Nov-22 22:38 33.299114 -104.526516 318 3676ft 0kts
18-Nov-22 22:39 33.299114 -104.526516 318 3676ft 0kts
18-Nov-22 22:40 33.299114 -104.526516 318 3676ft 0kts
18-Nov-22 22:41 33.299114 -104.526516 318 3676ft 0kts
18-Nov-22 22:42 33.299114 -104.526516 318 3676ft 0kts
18-Nov-22 22:43 33.299114 -104.526516 318 3676ft 0kts
18-Nov-22 22:44 33.299114 -104.526516 318 3676ft 0kts
18-Nov-22 22:45 33.299114 -104.526516 318 3676ft 0kts
18-Nov-22 22:46 33.299114 -104.526516 318 3676ft 0kts
18-Nov-22 22:47 33.299114 -104.526516 318 3676ft 0kts
18-Nov-22 22:48 33.299114 -104.526516 318 3676ft 0kts

Navigation Log

Ident Type
Flight plan parsing failed, navigation log unavailable